sensor_id;sensor_type;location;lat;lon;timestamp;P1;durP1;ratioP1;P2;durP2;ratioP2
11496;SDS011;5805;51.542;7.230;2023-11-22T00:01:14;3.85;;;3.35;;
11496;SDS011;5805;51.542;7.230;2023-11-22T00:03:41;5.50;;;3.33;;
11496;SDS011;5805;51.542;7.230;2023-11-22T00:06:06;3.60;;;3.15;;
11496;SDS011;5805;51.542;7.230;2023-11-22T00:08:32;4.93;;;3.30;;
11496;SDS011;5805;51.542;7.230;2023-11-22T00:10:58;4.57;;;3.70;;
11496;SDS011;5805;51.542;7.230;2023-11-22T00:13:25;5.25;;;3.55;;
11496;SDS011;5805;51.542;7.230;2023-11-22T00:15:51;4.43;;;3.75;;
11496;SDS011;5805;51.542;7.230;2023-11-22T00:18:17;4.65;;;3.15;;
11496;SDS011;5805;51.542;7.230;2023-11-22T00:20:43;3.92;;;3.53;;
11496;SDS011;5805;51.542;7.230;2023-11-22T00:23:10;3.67;;;3.25;;
11496;SDS011;5805;51.542;7.230;2023-11-22T00:25:38;4.80;;;3.38;;
11496;SDS011;5805;51.542;7.230;2023-11-22T00:28:04;3.78;;;3.35;;
11496;SDS011;5805;51.542;7.230;2023-11-22T00:30:31;3.72;;;3.38;;
11496;SDS011;5805;51.542;7.230;2023-11-22T00:32:57;3.67;;;3.38;;
11496;SDS011;5805;51.542;7.230;2023-11-22T00:35:23;5.30;;;3.80;;
11496;SDS011;5805;51.542;7.230;2023-11-22T00:37:48;5.65;;;3.85;;
11496;SDS011;5805;51.542;7.230;2023-11-22T00:40:14;4.60;;;3.78;;
11496;SDS011;5805;51.542;7.230;2023-11-22T00:42:41;4.72;;;3.65;;
11496;SDS011;5805;51.542;7.230;2023-11-22T00:45:07;4.90;;;3.90;;
11496;SDS011;5805;51.542;7.230;2023-11-22T00:47:34;4.10;;;3.70;;
11496;SDS011;5805;51.542;7.230;2023-11-22T00:50:00;3.95;;;3.55;;
11496;SDS011;5805;51.542;7.230;2023-11-22T00:52:28;4.60;;;3.60;;
11496;SDS011;5805;51.542;7.230;2023-11-22T00:54:53;4.43;;;3.42;;
11496;SDS011;5805;51.542;7.230;2023-11-22T00:57:19;5.40;;;3.90;;
11496;SDS011;5805;51.542;7.230;2023-11-22T00:59:45;3.83;;;3.42;;
11496;SDS011;5805;51.542;7.230;2023-11-22T01:02:11;4.82;;;3.85;;
11496;SDS011;5805;51.542;7.230;2023-11-22T01:04:38;4.22;;;3.65;;
11496;SDS011;5805;51.542;7.230;2023-11-22T01:07:04;4.78;;;4.00;;
11496;SDS011;5805;51.542;7.230;2023-11-22T01:09:31;4.50;;;3.97;;
11496;SDS011;5805;51.542;7.230;2023-11-22T01:11:57;4.57;;;4.00;;
11496;SDS011;5805;51.542;7.230;2023-11-22T01:14:22;4.95;;;4.45;;
11496;SDS011;5805;51.542;7.230;2023-11-22T01:16:49;7.50;;;4.53;;
11496;SDS011;5805;51.542;7.230;2023-11-22T01:19:15;6.30;;;4.93;;
11496;SDS011;5805;51.542;7.230;2023-11-22T01:21:42;5.85;;;4.63;;
11496;SDS011;5805;51.542;7.230;2023-11-22T01:24:08;7.40;;;5.22;;
11496;SDS011;5805;51.542;7.230;2023-11-22T01:26:34;5.70;;;4.82;;
11496;SDS011;5805;51.542;7.230;2023-11-22T01:29:00;5.35;;;4.85;;
11496;SDS011;5805;51.542;7.230;2023-11-22T01:31:25;7.30;;;4.38;;
11496;SDS011;5805;51.542;7.230;2023-11-22T01:33:51;6.40;;;4.72;;
11496;SDS011;5805;51.542;7.230;2023-11-22T01:36:17;7.10;;;4.85;;
11496;SDS011;5805;51.542;7.230;2023-11-22T01:38:44;7.03;;;4.70;;
11496;SDS011;5805;51.542;7.230;2023-11-22T01:41:09;5.90;;;4.50;;
11496;SDS011;5805;51.542;7.230;2023-11-22T01:43:35;6.20;;;5.15;;
11496;SDS011;5805;51.542;7.230;2023-11-22T01:46:01;8.38;;;4.90;;
11496;SDS011;5805;51.542;7.230;2023-11-22T01:48:27;5.10;;;4.47;;
11496;SDS011;5805;51.542;7.230;2023-11-22T01:50:54;5.03;;;4.43;;
11496;SDS011;5805;51.542;7.230;2023-11-22T01:53:22;6.15;;;5.20;;
11496;SDS011;5805;51.542;7.230;2023-11-22T01:55:50;6.30;;;5.20;;
11496;SDS011;5805;51.542;7.230;2023-11-22T01:58:16;7.18;;;4.85;;
11496;SDS011;5805;51.542;7.230;2023-11-22T02:00:42;8.32;;;5.20;;
11496;SDS011;5805;51.542;7.230;2023-11-22T02:03:13;6.90;;;4.97;;
11496;SDS011;5805;51.542;7.230;2023-11-22T02:05:39;5.95;;;5.30;;
11496;SDS011;5805;51.542;7.230;2023-11-22T02:08:06;6.68;;;5.10;;
11496;SDS011;5805;51.542;7.230;2023-11-22T02:10:32;6.53;;;5.32;;
11496;SDS011;5805;51.542;7.230;2023-11-22T02:13:00;6.53;;;5.28;;
11496;SDS011;5805;51.542;7.230;2023-11-22T02:15:26;5.20;;;4.70;;
11496;SDS011;5805;51.542;7.230;2023-11-22T02:17:52;5.43;;;4.90;;
11496;SDS011;5805;51.542;7.230;2023-11-22T02:20:18;5.15;;;4.65;;
11496;SDS011;5805;51.542;7.230;2023-11-22T02:22:46;6.25;;;5.15;;
11496;SDS011;5805;51.542;7.230;2023-11-22T02:25:14;7.90;;;4.90;;
11496;SDS011;5805;51.542;7.230;2023-11-22T02:27:40;8.35;;;4.85;;
11496;SDS011;5805;51.542;7.230;2023-11-22T02:30:06;5.57;;;4.70;;
11496;SDS011;5805;51.542;7.230;2023-11-22T02:32:33;6.32;;;5.20;;
11496;SDS011;5805;51.542;7.230;2023-11-22T02:34:59;5.68;;;4.95;;
11496;SDS011;5805;51.542;7.230;2023-11-22T02:37:25;6.68;;;5.45;;
11496;SDS011;5805;51.542;7.230;2023-11-22T02:39:52;6.55;;;5.55;;
11496;SDS011;5805;51.542;7.230;2023-11-22T02:42:24;6.18;;;4.82;;
11496;SDS011;5805;51.542;7.230;2023-11-22T02:44:50;7.65;;;4.88;;
11496;SDS011;5805;51.542;7.230;2023-11-22T02:47:16;5.60;;;4.97;;
11496;SDS011;5805;51.542;7.230;2023-11-22T02:49:43;9.07;;;5.55;;
11496;SDS011;5805;51.542;7.230;2023-11-22T02:52:09;6.15;;;5.32;;
11496;SDS011;5805;51.542;7.230;2023-11-22T02:54:35;6.65;;;5.15;;
11496;SDS011;5805;51.542;7.230;2023-11-22T02:57:00;6.40;;;5.28;;
11496;SDS011;5805;51.542;7.230;2023-11-22T02:59:27;7.03;;;5.07;;
11496;SDS011;5805;51.542;7.230;2023-11-22T03:01:53;8.40;;;5.13;;
11496;SDS011;5805;51.542;7.230;2023-11-22T03:04:19;6.70;;;5.20;;
11496;SDS011;5805;51.542;7.230;2023-11-22T03:06:44;7.07;;;5.20;;
11496;SDS011;5805;51.542;7.230;2023-11-22T03:09:10;6.00;;;5.40;;
11496;SDS011;5805;51.542;7.230;2023-11-22T03:11:36;6.97;;;5.03;;
11496;SDS011;5805;51.542;7.230;2023-11-22T03:14:02;8.65;;;5.63;;
11496;SDS011;5805;51.542;7.230;2023-11-22T03:16:29;6.55;;;4.63;;
11496;SDS011;5805;51.542;7.230;2023-11-22T03:18:54;6.20;;;5.03;;
11496;SDS011;5805;51.542;7.230;2023-11-22T03:21:20;7.90;;;5.28;;
11496;SDS011;5805;51.542;7.230;2023-11-22T03:23:46;7.95;;;5.10;;
11496;SDS011;5805;51.542;7.230;2023-11-22T03:26:12;11.98;;;6.40;;
11496;SDS011;5805;51.542;7.230;2023-11-22T03:28:37;7.05;;;5.15;;
11496;SDS011;5805;51.542;7.230;2023-11-22T03:31:03;6.85;;;5.07;;
11496;SDS011;5805;51.542;7.230;2023-11-22T03:33:30;7.13;;;4.60;;
11496;SDS011;5805;51.542;7.230;2023-11-22T03:35:56;6.43;;;4.80;;
11496;SDS011;5805;51.542;7.230;2023-11-22T03:38:21;6.15;;;4.35;;
11496;SDS011;5805;51.542;7.230;2023-11-22T03:40:47;6.55;;;4.95;;
11496;SDS011;5805;51.542;7.230;2023-11-22T03:43:13;7.47;;;5.50;;
11496;SDS011;5805;51.542;7.230;2023-11-22T03:45:39;6.20;;;5.05;;
11496;SDS011;5805;51.542;7.230;2023-11-22T03:48:05;8.18;;;5.47;;
11496;SDS011;5805;51.542;7.230;2023-11-22T03:50:33;6.78;;;5.20;;
11496;SDS011;5805;51.542;7.230;2023-11-22T03:52:59;6.25;;;4.95;;
11496;SDS011;5805;51.542;7.230;2023-11-22T03:55:25;7.55;;;5.57;;
11496;SDS011;5805;51.542;7.230;2023-11-22T03:57:50;6.43;;;5.20;;
11496;SDS011;5805;51.542;7.230;2023-11-22T04:00:16;6.13;;;4.90;;
11496;SDS011;5805;51.542;7.230;2023-11-22T04:02:43;5.60;;;4.95;;
11496;SDS011;5805;51.542;7.230;2023-11-22T04:05:10;5.75;;;4.97;;
11496;SDS011;5805;51.542;7.230;2023-11-22T04:07:38;8.70;;;5.43;;
11496;SDS011;5805;51.542;7.230;2023-11-22T04:10:04;6.65;;;4.97;;
11496;SDS011;5805;51.542;7.230;2023-11-22T04:12:30;6.38;;;4.45;;
11496;SDS011;5805;51.542;7.230;2023-11-22T04:14:55;4.63;;;4.13;;
11496;SDS011;5805;51.542;7.230;2023-11-22T04:17:21;6.93;;;4.82;;
11496;SDS011;5805;51.542;7.230;2023-11-22T04:19:47;7.72;;;5.28;;
11496;SDS011;5805;51.542;7.230;2023-11-22T04:22:13;5.65;;;5.10;;
11496;SDS011;5805;51.542;7.230;2023-11-22T04:24:40;5.22;;;4.70;;
11496;SDS011;5805;51.542;7.230;2023-11-22T04:27:06;6.18;;;4.80;;
11496;SDS011;5805;51.542;7.230;2023-11-22T04:29:32;7.57;;;4.72;;
11496;SDS011;5805;51.542;7.230;2023-11-22T04:31:57;8.35;;;5.47;;
11496;SDS011;5805;51.542;7.230;2023-11-22T04:34:23;6.20;;;4.85;;
11496;SDS011;5805;51.542;7.230;2023-11-22T04:36:49;5.88;;;4.78;;
11496;SDS011;5805;51.542;7.230;2023-11-22T04:39:14;6.05;;;4.85;;
11496;SDS011;5805;51.542;7.230;2023-11-22T04:41:42;5.65;;;4.88;;
11496;SDS011;5805;51.542;7.230;2023-11-22T04:44:07;8.45;;;5.57;;
11496;SDS011;5805;51.542;7.230;2023-11-22T04:46:33;5.60;;;4.55;;
11496;SDS011;5805;51.542;7.230;2023-11-22T04:49:00;7.45;;;5.13;;
11496;SDS011;5805;51.542;7.230;2023-11-22T04:51:26;8.32;;;4.82;;
11496;SDS011;5805;51.542;7.230;2023-11-22T04:53:51;5.47;;;4.15;;
11496;SDS011;5805;51.542;7.230;2023-11-22T04:56:17;6.75;;;5.20;;
11496;SDS011;5805;51.542;7.230;2023-11-22T04:58:44;5.20;;;4.50;;
11496;SDS011;5805;51.542;7.230;2023-11-22T05:01:10;7.88;;;4.72;;
11496;SDS011;5805;51.542;7.230;2023-11-22T05:03:35;7.43;;;4.53;;
11496;SDS011;5805;51.542;7.230;2023-11-22T05:06:01;6.85;;;4.47;;
11496;SDS011;5805;51.542;7.230;2023-11-22T05:08:27;6.53;;;5.13;;
11496;SDS011;5805;51.542;7.230;2023-11-22T05:10:53;6.25;;;4.72;;
11496;SDS011;5805;51.542;7.230;2023-11-22T05:13:20;5.07;;;4.15;;
11496;SDS011;5805;51.542;7.230;2023-11-22T05:15:49;5.75;;;4.80;;
11496;SDS011;5805;51.542;7.230;2023-11-22T05:18:14;5.40;;;4.72;;
11496;SDS011;5805;51.542;7.230;2023-11-22T05:20:41;5.40;;;4.57;;
11496;SDS011;5805;51.542;7.230;2023-11-22T05:23:07;6.72;;;4.90;;
11496;SDS011;5805;51.542;7.230;2023-11-22T05:25:32;5.32;;;4.63;;
11496;SDS011;5805;51.542;7.230;2023-11-22T05:27:58;8.50;;;4.47;;
11496;SDS011;5805;51.542;7.230;2023-11-22T05:30:24;5.53;;;4.28;;
11496;SDS011;5805;51.542;7.230;2023-11-22T05:32:51;7.93;;;4.45;;
11496;SDS011;5805;51.542;7.230;2023-11-22T05:35:17;6.85;;;4.32;;
11496;SDS011;5805;51.542;7.230;2023-11-22T05:37:43;8.23;;;4.72;;
11496;SDS011;5805;51.542;7.230;2023-11-22T05:40:09;7.20;;;4.85;;
11496;SDS011;5805;51.542;7.230;2023-11-22T05:42:36;5.38;;;4.22;;
11496;SDS011;5805;51.542;7.230;2023-11-22T05:45:03;6.47;;;4.90;;
11496;SDS011;5805;51.542;7.230;2023-11-22T05:47:30;6.18;;;4.90;;
11496;SDS011;5805;51.542;7.230;2023-11-22T05:49:58;7.70;;;4.85;;
11496;SDS011;5805;51.542;7.230;2023-11-22T05:52:24;5.78;;;4.63;;
11496;SDS011;5805;51.542;7.230;2023-11-22T05:54:50;4.93;;;4.07;;
11496;SDS011;5805;51.542;7.230;2023-11-22T05:57:15;5.45;;;4.50;;
11496;SDS011;5805;51.542;7.230;2023-11-22T05:59:41;5.63;;;4.40;;
11496;SDS011;5805;51.542;7.230;2023-11-22T06:02:07;5.20;;;4.32;;
11496;SDS011;5805;51.542;7.230;2023-11-22T06:04:32;5.90;;;4.63;;
11496;SDS011;5805;51.542;7.230;2023-11-22T06:06:59;5.50;;;4.55;;
11496;SDS011;5805;51.542;7.230;2023-11-22T06:09:25;5.57;;;4.55;;
11496;SDS011;5805;51.542;7.230;2023-11-22T06:11:51;6.95;;;4.43;;
11496;SDS011;5805;51.542;7.230;2023-11-22T06:14:17;5.72;;;4.53;;
11496;SDS011;5805;51.542;7.230;2023-11-22T06:16:43;5.88;;;4.25;;
11496;SDS011;5805;51.542;7.230;2023-11-22T06:19:08;6.30;;;4.25;;
11496;SDS011;5805;51.542;7.230;2023-11-22T06:21:34;11.32;;;4.78;;
11496;SDS011;5805;51.542;7.230;2023-11-22T06:24:02;4.93;;;4.18;;
11496;SDS011;5805;51.542;7.230;2023-11-22T06:26:28;4.78;;;4.10;;
11496;SDS011;5805;51.542;7.230;2023-11-22T06:28:53;5.60;;;4.25;;
11496;SDS011;5805;51.542;7.230;2023-11-22T06:31:20;5.47;;;4.07;;
11496;SDS011;5805;51.542;7.230;2023-11-22T06:33:46;5.95;;;4.20;;
11496;SDS011;5805;51.542;7.230;2023-11-22T06:36:12;6.13;;;4.20;;
11496;SDS011;5805;51.542;7.230;2023-11-22T06:38:38;4.80;;;4.30;;
11496;SDS011;5805;51.542;7.230;2023-11-22T06:41:05;7.25;;;4.88;;
11496;SDS011;5805;51.542;7.230;2023-11-22T06:43:31;8.23;;;4.47;;
11496;SDS011;5805;51.542;7.230;2023-11-22T06:45:56;8.52;;;4.78;;
11496;SDS011;5805;51.542;7.230;2023-11-22T06:48:22;7.28;;;5.00;;
11496;SDS011;5805;51.542;7.230;2023-11-22T06:50:48;6.32;;;3.97;;
11496;SDS011;5805;51.542;7.230;2023-11-22T06:53:15;7.72;;;4.55;;
11496;SDS011;5805;51.542;7.230;2023-11-22T06:55:41;6.37;;;4.87;;
11496;SDS011;5805;51.542;7.230;2023-11-22T06:58:09;6.03;;;4.82;;
11496;SDS011;5805;51.542;7.230;2023-11-22T07:00:35;5.93;;;4.68;;
11496;SDS011;5805;51.542;7.230;2023-11-22T07:03:00;6.97;;;4.83;;
11496;SDS011;5805;51.542;7.230;2023-11-22T07:05:26;5.43;;;4.18;;
11496;SDS011;5805;51.542;7.230;2023-11-22T07:07:51;5.60;;;4.68;;
11496;SDS011;5805;51.542;7.230;2023-11-22T07:10:17;6.80;;;4.72;;
11496;SDS011;5805;51.542;7.230;2023-11-22T07:12:43;5.95;;;4.32;;
11496;SDS011;5805;51.542;7.230;2023-11-22T07:15:11;5.78;;;4.30;;
11496;SDS011;5805;51.542;7.230;2023-11-22T07:17:36;6.63;;;4.50;;
11496;SDS011;5805;51.542;7.230;2023-11-22T07:20:03;8.57;;;4.47;;
11496;SDS011;5805;51.542;7.230;2023-11-22T07:22:29;5.22;;;4.30;;
11496;SDS011;5805;51.542;7.230;2023-11-22T07:24:54;4.95;;;4.40;;
11496;SDS011;5805;51.542;7.230;2023-11-22T07:27:20;7.18;;;4.50;;
11496;SDS011;5805;51.542;7.230;2023-11-22T07:29:46;8.25;;;4.75;;
11496;SDS011;5805;51.542;7.230;2023-11-22T07:32:13;9.02;;;5.13;;
11496;SDS011;5805;51.542;7.230;2023-11-22T07:34:39;5.80;;;4.68;;
11496;SDS011;5805;51.542;7.230;2023-11-22T07:37:05;8.00;;;4.40;;
11496;SDS011;5805;51.542;7.230;2023-11-22T07:39:31;9.05;;;4.60;;
11496;SDS011;5805;51.542;7.230;2023-11-22T07:41:57;6.53;;;4.82;;
11496;SDS011;5805;51.542;7.230;2023-11-22T07:44:23;7.40;;;4.85;;
11496;SDS011;5805;51.542;7.230;2023-11-22T07:46:49;6.97;;;4.18;;
11496;SDS011;5805;51.542;7.230;2023-11-22T07:49:16;5.82;;;4.72;;
11496;SDS011;5805;51.542;7.230;2023-11-22T07:51:43;7.00;;;4.55;;
11496;SDS011;5805;51.542;7.230;2023-11-22T07:54:09;6.10;;;4.78;;
11496;SDS011;5805;51.542;7.230;2023-11-22T07:56:35;12.52;;;4.65;;
11496;SDS011;5805;51.542;7.230;2023-11-22T07:59:01;5.93;;;4.75;;
11496;SDS011;5805;51.542;7.230;2023-11-22T08:01:26;5.78;;;4.82;;
11496;SDS011;5805;51.542;7.230;2023-11-22T08:03:52;10.13;;;4.78;;
11496;SDS011;5805;51.542;7.230;2023-11-22T08:06:20;7.78;;;5.00;;
11496;SDS011;5805;51.542;7.230;2023-11-22T08:08:45;7.45;;;5.13;;
11496;SDS011;5805;51.542;7.230;2023-11-22T08:11:11;7.78;;;4.80;;
11496;SDS011;5805;51.542;7.230;2023-11-22T08:13:37;6.80;;;4.70;;
11496;SDS011;5805;51.542;7.230;2023-11-22T08:16:02;6.10;;;4.85;;
11496;SDS011;5805;51.542;7.230;2023-11-22T08:18:29;5.47;;;4.45;;
11496;SDS011;5805;51.542;7.230;2023-11-22T08:20:54;7.15;;;4.40;;
11496;SDS011;5805;51.542;7.230;2023-11-22T08:23:21;6.00;;;4.50;;
11496;SDS011;5805;51.542;7.230;2023-11-22T08:25:47;4.50;;;3.78;;
11496;SDS011;5805;51.542;7.230;2023-11-22T08:28:13;7.10;;;3.97;;
11496;SDS011;5805;51.542;7.230;2023-11-22T08:30:38;5.25;;;3.95;;
11496;SDS011;5805;51.542;7.230;2023-11-22T08:33:04;5.50;;;3.92;;
11496;SDS011;5805;51.542;7.230;2023-11-22T08:35:30;4.90;;;4.03;;
11496;SDS011;5805;51.542;7.230;2023-11-22T08:37:55;4.20;;;3.50;;
11496;SDS011;5805;51.542;7.230;2023-11-22T08:40:23;5.55;;;4.13;;
11496;SDS011;5805;51.542;7.230;2023-11-22T08:42:48;4.63;;;3.58;;
11496;SDS011;5805;51.542;7.230;2023-11-22T08:45:14;4.63;;;3.25;;
11496;SDS011;5805;51.542;7.230;2023-11-22T08:47:40;5.15;;;3.45;;
11496;SDS011;5805;51.542;7.230;2023-11-22T08:50:06;4.88;;;3.63;;
11496;SDS011;5805;51.542;7.230;2023-11-22T08:52:32;3.90;;;3.45;;
11496;SDS011;5805;51.542;7.230;2023-11-22T08:54:58;5.15;;;3.90;;
11496;SDS011;5805;51.542;7.230;2023-11-22T08:57:25;5.55;;;4.13;;
11496;SDS011;5805;51.542;7.230;2023-11-22T08:59:51;5.18;;;3.55;;
11496;SDS011;5805;51.542;7.230;2023-11-22T09:02:17;4.65;;;3.92;;
11496;SDS011;5805;51.542;7.230;2023-11-22T09:04:42;5.70;;;3.67;;
11496;SDS011;5805;51.542;7.230;2023-11-22T09:07:08;5.50;;;4.10;;
11496;SDS011;5805;51.542;7.230;2023-11-22T09:09:34;4.57;;;3.85;;
11496;SDS011;5805;51.542;7.230;2023-11-22T09:12:00;6.97;;;3.67;;
11496;SDS011;5805;51.542;7.230;2023-11-22T09:14:27;5.15;;;3.67;;
11496;SDS011;5805;51.542;7.230;2023-11-22T09:16:52;5.38;;;3.72;;
11496;SDS011;5805;51.542;7.230;2023-11-22T09:19:18;4.22;;;3.80;;
11496;SDS011;5805;51.542;7.230;2023-11-22T09:21:44;4.25;;;3.85;;
11496;SDS011;5805;51.542;7.230;2023-11-22T09:24:09;4.15;;;3.65;;
11496;SDS011;5805;51.542;7.230;2023-11-22T09:26:36;5.28;;;3.50;;
11496;SDS011;5805;51.542;7.230;2023-11-22T09:29:02;5.20;;;3.60;;
11496;SDS011;5805;51.542;7.230;2023-11-22T09:31:29;4.07;;;3.40;;
11496;SDS011;5805;51.542;7.230;2023-11-22T09:33:55;6.18;;;3.33;;
11496;SDS011;5805;51.542;7.230;2023-11-22T09:36:20;4.45;;;3.05;;
11496;SDS011;5805;51.542;7.230;2023-11-22T09:38:46;3.13;;;2.60;;
11496;SDS011;5805;51.542;7.230;2023-11-22T09:41:12;2.75;;;2.33;;
11496;SDS011;5805;51.542;7.230;2023-11-22T09:43:37;4.03;;;2.40;;
11496;SDS011;5805;51.542;7.230;2023-11-22T09:46:03;2.97;;;2.50;;
11496;SDS011;5805;51.542;7.230;2023-11-22T09:48:31;2.75;;;2.20;;
11496;SDS011;5805;51.542;7.230;2023-11-22T09:50:58;3.08;;;2.17;;
11496;SDS011;5805;51.542;7.230;2023-11-22T09:53:30;2.40;;;2.00;;
11496;SDS011;5805;51.542;7.230;2023-11-22T09:55:57;3.33;;;2.30;;
11496;SDS011;5805;51.542;7.230;2023-11-22T09:58:23;3.20;;;2.28;;
11496;SDS011;5805;51.542;7.230;2023-11-22T10:00:49;2.55;;;2.10;;
11496;SDS011;5805;51.542;7.230;2023-11-22T10:03:16;3.92;;;2.10;;
11496;SDS011;5805;51.542;7.230;2023-11-22T10:05:43;2.88;;;2.33;;
11496;SDS011;5805;51.542;7.230;2023-11-22T10:08:09;2.22;;;2.00;;
11496;SDS011;5805;51.542;7.230;2023-11-22T10:10:34;2.50;;;2.00;;
11496;SDS011;5805;51.542;7.230;2023-11-22T10:13:01;2.72;;;1.95;;
11496;SDS011;5805;51.542;7.230;2023-11-22T10:15:28;3.55;;;1.75;;
11496;SDS011;5805;51.542;7.230;2023-11-22T10:17:54;2.67;;;2.28;;
11496;SDS011;5805;51.542;7.230;2023-11-22T10:20:21;3.42;;;2.20;;
11496;SDS011;5805;51.542;7.230;2023-11-22T10:22:48;3.42;;;2.45;;
11496;SDS011;5805;51.542;7.230;2023-11-22T10:25:14;3.38;;;2.20;;
11496;SDS011;5805;51.542;7.230;2023-11-22T10:27:40;2.33;;;2.05;;
11496;SDS011;5805;51.542;7.230;2023-11-22T10:30:06;4.30;;;2.00;;
11496;SDS011;5805;51.542;7.230;2023-11-22T10:32:33;5.47;;;2.30;;
11496;SDS011;5805;51.542;7.230;2023-11-22T10:34:59;2.42;;;2.03;;
11496;SDS011;5805;51.542;7.230;2023-11-22T10:37:24;2.25;;;2.05;;
11496;SDS011;5805;51.542;7.230;2023-11-22T10:39:51;2.90;;;2.25;;
11496;SDS011;5805;51.542;7.230;2023-11-22T10:42:17;3.35;;;2.03;;
11496;SDS011;5805;51.542;7.230;2023-11-22T10:44:44;3.65;;;2.30;;
11496;SDS011;5805;51.542;7.230;2023-11-22T10:47:11;3.38;;;2.40;;
11496;SDS011;5805;51.542;7.230;2023-11-22T10:49:39;2.47;;;2.15;;
11496;SDS011;5805;51.542;7.230;2023-11-22T10:52:05;2.42;;;2.22;;
11496;SDS011;5805;51.542;7.230;2023-11-22T10:54:33;3.72;;;2.33;;
11496;SDS011;5805;51.542;7.230;2023-11-22T10:57:02;2.78;;;2.15;;
11496;SDS011;5805;51.542;7.230;2023-11-22T10:59:28;2.90;;;2.35;;
11496;SDS011;5805;51.542;7.230;2023-11-22T11:01:57;2.53;;;2.05;;
11496;SDS011;5805;51.542;7.230;2023-11-22T11:04:27;2.97;;;2.30;;
11496;SDS011;5805;51.542;7.230;2023-11-22T11:06:58;2.60;;;2.08;;
11496;SDS011;5805;51.542;7.230;2023-11-22T11:09:25;3.22;;;2.53;;
11496;SDS011;5805;51.542;7.230;2023-11-22T11:11:52;2.92;;;2.47;;
11496;SDS011;5805;51.542;7.230;2023-11-22T11:14:19;3.55;;;2.28;;
11496;SDS011;5805;51.542;7.230;2023-11-22T11:16:45;2.90;;;2.60;;
11496;SDS011;5805;51.542;7.230;2023-11-22T11:19:12;3.10;;;2.22;;
11496;SDS011;5805;51.542;7.230;2023-11-22T11:21:39;2.65;;;2.30;;
11496;SDS011;5805;51.542;7.230;2023-11-22T11:24:05;3.13;;;2.60;;
11496;SDS011;5805;51.542;7.230;2023-11-22T11:26:31;4.82;;;2.78;;
11496;SDS011;5805;51.542;7.230;2023-11-22T11:28:57;3.17;;;2.40;;
11496;SDS011;5805;51.542;7.230;2023-11-22T11:31:24;4.53;;;2.20;;
11496;SDS011;5805;51.542;7.230;2023-11-22T11:33:56;5.13;;;2.78;;
11496;SDS011;5805;51.542;7.230;2023-11-22T11:36:23;4.35;;;2.80;;
11496;SDS011;5805;51.542;7.230;2023-11-22T11:38:51;2.90;;;2.22;;
11496;SDS011;5805;51.542;7.230;2023-11-22T11:41:17;2.90;;;2.42;;
11496;SDS011;5805;51.542;7.230;2023-11-22T11:43:44;2.88;;;2.40;;
11496;SDS011;5805;51.542;7.230;2023-11-22T11:46:11;3.00;;;2.35;;
11496;SDS011;5805;51.542;7.230;2023-11-22T11:48:39;4.53;;;2.42;;
11496;SDS011;5805;51.542;7.230;2023-11-22T11:51:07;2.30;;;2.10;;
11496;SDS011;5805;51.542;7.230;2023-11-22T11:53:33;3.45;;;2.10;;
11496;SDS011;5805;51.542;7.230;2023-11-22T11:55:59;5.43;;;2.20;;
11496;SDS011;5805;51.542;7.230;2023-11-22T11:58:26;2.70;;;1.75;;
11496;SDS011;5805;51.542;7.230;2023-11-22T12:00:52;3.65;;;2.45;;
11496;SDS011;5805;51.542;7.230;2023-11-22T12:03:20;3.03;;;2.20;;
11496;SDS011;5805;51.542;7.230;2023-11-22T12:05:47;2.95;;;2.22;;
11496;SDS011;5805;51.542;7.230;2023-11-22T12:08:13;2.42;;;2.15;;
11496;SDS011;5805;51.542;7.230;2023-11-22T12:10:39;3.63;;;2.13;;
11496;SDS011;5805;51.542;7.230;2023-11-22T12:13:04;5.88;;;2.58;;
11496;SDS011;5805;51.542;7.230;2023-11-22T12:15:30;3.53;;;2.50;;
11496;SDS011;5805;51.542;7.230;2023-11-22T12:17:56;3.17;;;2.28;;
11496;SDS011;5805;51.542;7.230;2023-11-22T12:20:22;2.83;;;2.38;;
11496;SDS011;5805;51.542;7.230;2023-11-22T12:22:50;3.30;;;2.45;;
11496;SDS011;5805;51.542;7.230;2023-11-22T12:25:15;4.28;;;2.38;;
11496;SDS011;5805;51.542;7.230;2023-11-22T12:27:41;4.88;;;2.45;;
11496;SDS011;5805;51.542;7.230;2023-11-22T12:30:08;3.45;;;2.65;;
11496;SDS011;5805;51.542;7.230;2023-11-22T12:32:34;5.20;;;2.45;;
11496;SDS011;5805;51.542;7.230;2023-11-22T12:35:04;5.43;;;2.63;;
11496;SDS011;5805;51.542;7.230;2023-11-22T12:37:30;3.13;;;2.20;;
11496;SDS011;5805;51.542;7.230;2023-11-22T12:39:57;3.13;;;2.22;;
11496;SDS011;5805;51.542;7.230;2023-11-22T12:42:23;3.05;;;2.35;;
11496;SDS011;5805;51.542;7.230;2023-11-22T12:44:49;2.78;;;2.20;;
11496;SDS011;5805;51.542;7.230;2023-11-22T12:47:15;2.53;;;2.17;;
11496;SDS011;5805;51.542;7.230;2023-11-22T12:49:55;2.97;;;1.90;;
11496;SDS011;5805;51.542;7.230;2023-11-22T12:52:21;2.95;;;2.05;;
11496;SDS011;5805;51.542;7.230;2023-11-22T12:54:51;2.10;;;1.90;;
11496;SDS011;5805;51.542;7.230;2023-11-22T12:57:18;2.38;;;1.63;;
11496;SDS011;5805;51.542;7.230;2023-11-22T12:59:44;2.47;;;1.80;;
11496;SDS011;5805;51.542;7.230;2023-11-22T13:02:10;2.22;;;1.48;;
11496;SDS011;5805;51.542;7.230;2023-11-22T13:04:35;1.58;;;1.35;;
11496;SDS011;5805;51.542;7.230;2023-11-22T13:07:01;2.60;;;1.55;;
11496;SDS011;5805;51.542;7.230;2023-11-22T13:09:27;3.00;;;1.50;;
11496;SDS011;5805;51.542;7.230;2023-11-22T13:11:52;1.63;;;1.23;;
11496;SDS011;5805;51.542;7.230;2023-11-22T13:14:19;1.33;;;1.17;;
11496;SDS011;5805;51.542;7.230;2023-11-22T13:16:45;6.75;;;1.38;;
11496;SDS011;5805;51.542;7.230;2023-11-22T13:19:11;3.00;;;1.30;;
11496;SDS011;5805;51.542;7.230;2023-11-22T13:21:36;2.05;;;1.33;;
11496;SDS011;5805;51.542;7.230;2023-11-22T13:24:02;3.03;;;1.50;;
11496;SDS011;5805;51.542;7.230;2023-11-22T13:26:29;1.90;;;1.55;;
11496;SDS011;5805;51.542;7.230;2023-11-22T13:28:54;1.92;;;1.20;;
11496;SDS011;5805;51.542;7.230;2023-11-22T13:31:22;1.77;;;1.40;;
11496;SDS011;5805;51.542;7.230;2023-11-22T13:33:47;3.17;;;1.60;;
11496;SDS011;5805;51.542;7.230;2023-11-22T13:36:13;1.50;;;1.40;;
11496;SDS011;5805;51.542;7.230;2023-11-22T13:38:39;3.70;;;1.50;;
11496;SDS011;5805;51.542;7.230;2023-11-22T13:41:04;2.08;;;1.30;;
11496;SDS011;5805;51.542;7.230;2023-11-22T13:43:30;2.55;;;1.40;;
11496;SDS011;5805;51.542;7.230;2023-11-22T13:45:56;3.22;;;1.52;;
11496;SDS011;5805;51.542;7.230;2023-11-22T13:48:23;2.30;;;1.50;;
11496;SDS011;5805;51.542;7.230;2023-11-22T13:50:48;3.00;;;1.83;;
11496;SDS011;5805;51.542;7.230;2023-11-22T13:53:14;3.58;;;1.80;;
11496;SDS011;5805;51.542;7.230;2023-11-22T13:55:40;3.40;;;1.92;;
11496;SDS011;5805;51.542;7.230;2023-11-22T13:58:05;1.95;;;1.55;;
11496;SDS011;5805;51.542;7.230;2023-11-22T14:00:31;2.25;;;1.77;;
11496;SDS011;5805;51.542;7.230;2023-11-22T14:02:57;2.80;;;1.73;;
11496;SDS011;5805;51.542;7.230;2023-11-22T14:05:24;2.55;;;1.52;;
11496;SDS011;5805;51.542;7.230;2023-11-22T14:07:51;2.22;;;1.50;;
11496;SDS011;5805;51.542;7.230;2023-11-22T14:10:16;3.38;;;1.95;;
11496;SDS011;5805;51.542;7.230;2023-11-22T14:12:42;2.65;;;1.77;;
11496;SDS011;5805;51.542;7.230;2023-11-22T14:15:09;4.03;;;2.05;;
11496;SDS011;5805;51.542;7.230;2023-11-22T14:17:35;4.25;;;1.83;;
11496;SDS011;5805;51.542;7.230;2023-11-22T14:20:01;2.47;;;1.95;;
11496;SDS011;5805;51.542;7.230;2023-11-22T14:22:28;2.22;;;1.88;;
11496;SDS011;5805;51.542;7.230;2023-11-22T14:24:53;3.58;;;2.00;;
11496;SDS011;5805;51.542;7.230;2023-11-22T14:27:19;5.65;;;2.15;;
11496;SDS011;5805;51.542;7.230;2023-11-22T14:29:45;1.52;;;1.38;;
11496;SDS011;5805;51.542;7.230;2023-11-22T14:32:11;2.33;;;2.10;;
11496;SDS011;5805;51.542;7.230;2023-11-22T14:34:36;2.15;;;1.65;;
11496;SDS011;5805;51.542;7.230;2023-11-22T14:37:02;2.45;;;1.92;;
11496;SDS011;5805;51.542;7.230;2023-11-22T14:39:29;2.08;;;1.70;;
11496;SDS011;5805;51.542;7.230;2023-11-22T14:41:55;3.22;;;2.10;;
11496;SDS011;5805;51.542;7.230;2023-11-22T14:44:20;2.05;;;1.85;;
11496;SDS011;5805;51.542;7.230;2023-11-22T14:46:46;4.13;;;2.35;;
11496;SDS011;5805;51.542;7.230;2023-11-22T14:49:12;3.42;;;2.35;;
11496;SDS011;5805;51.542;7.230;2023-11-22T14:51:37;3.78;;;2.78;;
11496;SDS011;5805;51.542;7.230;2023-11-22T14:54:03;4.75;;;2.08;;